Time;durP1;ratioP1;P1;durP2;ratioP2;P2;SDS_P1;SDS_P2;PMS_P1;PMS_P2;Temp;Humidity;BMP_temperature;BMP_pressure;BME280_temperature;BME280_humidity;BME280_pressure;Samples;Min_cycle;Max_cycle;Signal;HPM_P1;HPM_P2
2022/05/13 00:02:13;;;;;;;9.88;1.63;;;18.20;99.90;;;;;;5019980;28;20110;-68
2022/05/13 00:04:41;;;;;;;8.43;1.95;;;18.20;99.90;;;;;;5022782;28;20387;-68
2022/05/13 00:07:08;;;;;;;8.48;2.03;;;18.20;99.90;;;;;;5023425;28;20032;-67
2022/05/13 00:12:21;;;;;;;17.63;2.88;;;18.30;99.90;;;;;;5022906;28;20099;-68
2022/05/13 00:14:49;;;;;;;7.63;2.03;;;18.20;99.90;;;;;;5021636;28;20033;-68
2022/05/13 00:17:16;;;;;;;11.13;2.13;;;18.30;99.90;;;;;;5018198;28;20382;-68
2022/05/13 00:19:44;;;;;;;8.45;2.30;;;18.30;99.90;;;;;;5022907;28;20033;-68
2022/05/13 00:22:12;;;;;;;11.15;2.40;;;18.30;99.90;;;;;;5018305;28;20124;-68
2022/05/13 00:24:40;;;;;;;8.23;2.05;;;18.30;99.90;;;;;;5015088;28;20020;-68
2022/05/13 00:27:07;;;;;;;8.15;2.30;;;18.30;99.90;;;;;;5020971;28;20022;-68
2022/05/13 00:29:35;;;;;;;8.38;2.60;;;18.30;99.90;;;;;;5027150;28;20136;-68
2022/05/13 00:32:03;;;;;;;11.75;2.60;;;18.30;99.90;;;;;;5026409;28;20022;-68
2022/05/13 00:34:30;;;;;;;7.75;2.78;;;18.40;99.90;;;;;;5020749;28;20492;-66
2022/05/13 00:36:58;;;;;;;9.70;3.15;;;18.40;99.90;;;;;;5019989;28;20100;-66
2022/05/13 00:39:25;;;;;;;12.35;3.42;;;18.50;99.90;;;;;;5019772;28;20481;-66
2022/05/13 00:41:55;;;;;;;11.23;3.53;;;18.50;99.90;;;;;;5016044;28;20124;-66
2022/05/13 00:44:22;;;;;;;9.93;2.50;;;18.50;99.90;;;;;;5024094;28;20238;-67
2022/05/13 00:46:50;;;;;;;10.90;2.85;;;18.40;99.90;;;;;;5030350;28;20482;-66
2022/05/13 00:49:17;;;;;;;8.20;2.72;;;18.50;99.90;;;;;;5029757;28;20025;-66
2022/05/13 00:51:46;;;;;;;15.75;3.20;;;18.50;99.90;;;;;;5024336;28;20049;-66
2022/05/13 00:54:15;;;;;;;11.10;3.00;;;18.50;99.90;;;;;;5027877;28;20099;-67
2022/05/13 00:56:46;;;;;;;10.43;2.60;;;18.50;99.90;;;;;;5021976;28;20029;-67
2022/05/13 00:59:19;;;;;;;10.38;2.42;;;18.50;99.90;;;;;;5024732;28;20087;-67
2022/05/13 01:01:48;;;;;;;9.27;2.17;;;18.50;99.90;;;;;;5025093;28;20116;-67
2022/05/13 01:04:17;;;;;;;6.97;1.77;;;18.50;99.90;;;;;;5033722;28;20833;-67
2022/05/13 01:06:51;;;;;;;8.95;2.60;;;18.50;99.90;;;;;;5020367;28;20026;-67
2022/05/13 01:09:20;;;;;;;14.70;1.95;;;18.40;99.90;;;;;;5029463;28;20076;-67
2022/05/13 01:11:52;;;;;;;10.55;2.28;;;18.40;99.90;;;;;;5026990;28;20018;-67
2022/05/13 01:14:27;;;;;;;7.68;2.00;;;18.50;99.90;;;;;;5021176;28;20478;-67
2022/05/13 01:19:40;;;;;;;8.30;2.25;;;18.60;99.90;;;;;;5020703;28;20083;-67
2022/05/13 01:22:16;;;;;;;7.32;2.20;;;18.60;99.90;;;;;;5022469;28;20037;-67
2022/05/13 01:24:45;;;;;;;8.32;1.90;;;18.60;99.90;;;;;;5018088;28;20113;-67
2022/05/13 01:27:12;;;;;;;9.75;2.08;;;18.60;99.90;;;;;;5022331;28;20108;-68
2022/05/13 01:29:39;;;;;;;10.93;2.55;;;18.60;99.90;;;;;;5020967;28;20030;-67
2022/05/13 01:32:07;;;;;;;10.65;2.10;;;18.60;99.90;;;;;;5022914;28;20029;-67
2022/05/13 01:34:34;;;;;;;5.65;1.58;;;18.60;99.90;;;;;;5024641;28;20041;-67
2022/05/13 01:37:01;;;;;;;6.68;1.67;;;18.50;99.90;;;;;;5026589;28;20029;-68
2022/05/13 01:39:29;;;;;;;7.85;2.13;;;18.60;99.90;;;;;;5026391;28;20022;-68
2022/05/13 01:41:56;;;;;;;8.30;2.30;;;18.60;99.90;;;;;;5022388;28;20214;-68
2022/05/13 01:44:23;;;;;;;10.93;2.22;;;18.60;99.90;;;;;;5025036;28;20025;-68
2022/05/13 01:46:51;;;;;;;6.68;2.33;;;18.60;99.90;;;;;;5016173;28;20024;-67
2022/05/13 01:49:18;;;;;;;13.02;2.30;;;18.60;99.90;;;;;;5023361;28;20025;-68
2022/05/13 01:51:45;;;;;;;9.73;2.30;;;18.60;99.90;;;;;;5027422;28;20049;-68
2022/05/13 01:54:12;;;;;;;10.30;2.20;;;18.60;99.90;;;;;;5026051;28;20036;-68
2022/05/13 01:56:40;;;;;;;9.65;2.10;;;18.70;99.90;;;;;;5024591;28;20022;-68
2022/05/13 01:59:07;;;;;;;10.55;2.28;;;18.60;99.90;;;;;;5036111;28;20440;-67
2022/05/13 02:01:34;;;;;;;10.68;2.65;;;18.70;99.90;;;;;;5030883;28;20038;-67
2022/05/13 02:04:02;;;;;;;7.75;2.67;;;18.70;99.90;;;;;;5025217;28;20026;-68
2022/05/13 02:06:31;;;;;;;11.23;3.33;;;18.80;99.90;;;;;;5020090;28;20061;-68
2022/05/13 02:09:00;;;;;;;8.65;3.00;;;18.90;99.90;;;;;;5022516;28;20068;-68
2022/05/13 02:11:31;;;;;;;10.80;2.72;;;19.10;99.90;;;;;;5019859;28;20128;-68
2022/05/13 02:13:59;;;;;;;12.20;3.05;;;19.10;99.90;;;;;;5033138;28;20502;-67
2022/05/13 02:16:26;;;;;;;9.00;2.55;;;19.10;99.90;;;;;;5014888;28;20022;-68
2022/05/13 02:18:54;;;;;;;10.77;2.58;;;19.10;99.90;;;;;;5027462;28;20017;-68
2022/05/13 02:21:21;;;;;;;6.13;1.80;;;19.20;99.90;;;;;;5015096;28;20045;-67
2022/05/13 02:23:49;;;;;;;7.43;1.75;;;19.10;99.90;;;;;;5029600;28;20477;-68
2022/05/13 02:26:17;;;;;;;16.30;2.78;;;19.20;99.90;;;;;;5026102;28;20485;-68
2022/05/13 02:28:45;;;;;;;13.30;2.80;;;19.10;99.90;;;;;;5019266;28;20075;-67
2022/05/13 02:31:14;;;;;;;6.68;2.10;;;19.10;99.90;;;;;;5026821;28;20057;-68
2022/05/13 02:33:42;;;;;;;8.13;2.17;;;19.20;99.90;;;;;;5018179;28;20034;-68
2022/05/13 02:36:11;;;;;;;8.68;1.85;;;19.40;99.90;;;;;;5026183;28;20112;-68
2022/05/13 02:38:39;;;;;;;9.90;2.97;;;19.50;99.90;;;;;;5019934;28;20022;-68
2022/05/13 02:41:13;;;;;;;11.50;2.25;;;19.50;99.90;;;;;;5025635;28;20099;-68
2022/05/13 02:43:46;;;;;;;8.25;2.17;;;19.60;99.90;;;;;;5023328;28;20045;-68
2022/05/13 02:46:17;;;;;;;10.55;2.30;;;19.60;99.90;;;;;;5018082;28;20029;-68
2022/05/13 02:48:45;;;;;;;6.88;2.03;;;19.50;99.90;;;;;;5019964;28;20049;-68
2022/05/13 02:51:13;;;;;;;12.20;2.20;;;19.60;99.90;;;;;;5026949;28;20033;-68
2022/05/13 02:53:41;;;;;;;7.78;1.35;;;19.60;99.90;;;;;;5030200;28;20049;-69
2022/05/13 02:56:08;;;;;;;4.38;1.67;;;19.60;99.90;;;;;;5026497;28;20029;-68
2022/05/13 02:58:37;;;;;;;5.88;1.20;;;19.60;99.90;;;;;;5019085;28;20026;-68
2022/05/13 03:01:07;;;;;;;5.88;0.90;;;19.50;99.90;;;;;;5016234;28;20474;-68
2022/05/13 03:03:37;;;;;;;3.40;1.08;;;19.50;99.90;;;;;;5019596;28;20285;-68
2022/05/13 03:06:04;;;;;;;5.03;1.60;;;19.50;99.90;;;;;;5016889;28;20021;-69
2022/05/13 03:08:32;;;;;;;6.47;1.45;;;19.50;99.90;;;;;;5031195;28;20454;-68
2022/05/13 03:10:59;;;;;;;4.60;1.45;;;19.50;99.90;;;;;;5031342;28;20030;-68
2022/05/13 03:13:26;;;;;;;8.43;1.75;;;19.50;99.90;;;;;;5018175;28;20113;-69
2022/05/13 03:15:54;;;;;;;9.70;1.70;;;19.50;99.90;;;;;;5020273;28;20112;-68
2022/05/13 03:18:21;;;;;;;6.45;1.65;;;19.50;99.90;;;;;;5025859;28;20429;-68
2022/05/13 03:20:48;;;;;;;5.55;1.35;;;19.40;99.90;;;;;;5017060;28;20441;-67
2022/05/13 03:23:15;;;;;;;6.10;1.27;;;19.50;99.90;;;;;;5027653;28;20034;-67
2022/05/13 03:25:43;;;;;;;6.60;1.70;;;19.50;99.90;;;;;;5024013;28;20030;-67
2022/05/13 03:28:10;;;;;;;5.70;1.80;;;19.50;99.90;;;;;;5020724;28;20367;-67
2022/05/13 03:30:38;;;;;;;7.13;1.88;;;19.50;99.90;;;;;;5014381;28;20026;-68
2022/05/13 03:33:05;;;;;;;5.80;1.70;;;19.60;99.90;;;;;;5017061;28;20064;-67
2022/05/13 03:35:33;;;;;;;7.45;1.17;;;19.70;99.90;;;;;;5017733;28;20413;-68
2022/05/13 03:38:00;;;;;;;6.82;1.60;;;19.80;99.90;;;;;;5025271;28;20548;-68
2022/05/13 03:40:28;;;;;;;4.78;1.38;;;19.80;99.90;;;;;;5025695;28;20029;-68
2022/05/13 03:42:55;;;;;;;5.30;1.40;;;19.80;99.90;;;;;;5013131;28;20038;-69
2022/05/13 03:45:22;;;;;;;7.13;1.30;;;19.80;99.90;;;;;;5018096;28;20032;-68
2022/05/13 03:47:50;;;;;;;7.00;1.15;;;19.80;99.90;;;;;;5022951;28;20022;-68
2022/05/13 03:50:17;;;;;;;6.07;1.17;;;19.80;99.90;;;;;;5019464;28;20041;-68
2022/05/13 03:52:44;;;;;;;3.08;0.65;;;19.80;99.90;;;;;;5015706;28;20053;-68
2022/05/13 03:55:12;;;;;;;4.72;1.13;;;19.70;99.90;;;;;;5024185;28;20021;-69
2022/05/13 03:57:40;;;;;;;4.22;1.02;;;19.70;99.90;;;;;;5016257;28;20525;-68
2022/05/13 04:00:09;;;;;;;3.63;0.82;;;19.80;99.90;;;;;;5021693;28;20482;-69
2022/05/13 04:02:38;;;;;;;4.65;0.75;;;19.80;99.90;;;;;;5015385;28;20029;-69
2022/05/13 04:10:38;;;;;;;6.43;0.65;;;19.90;99.90;;;;;;5021954;28;20032;-69
2022/05/13 04:16:06;;;;;;;2.80;0.60;;;19.90;99.90;;;;;;5030797;28;20033;-69
2022/05/13 04:18:38;;;;;;;6.57;0.90;;;19.90;99.90;;;;;;5033144;28;20083;-69
2022/05/13 04:21:08;;;;;;;3.00;1.10;;;20.00;99.90;;;;;;5025926;28;20045;-69
2022/05/13 04:23:40;;;;;;;4.40;1.20;;;20.00;99.90;;;;;;5033836;28;20144;-69
2022/05/13 04:26:07;;;;;;;5.00;1.25;;;20.10;99.90;;;;;;5026423;28;20033;-69
2022/05/13 04:28:35;;;;;;;4.38;1.33;;;20.10;99.90;;;;;;5025510;28;20034;-69
2022/05/13 04:31:02;;;;;;;5.82;1.60;;;20.10;99.90;;;;;;5023353;28;20149;-68
2022/05/13 04:33:29;;;;;;;12.57;1.58;;;20.00;99.90;;;;;;5017134;28;20025;-69
2022/05/13 04:35:56;;;;;;;7.88;1.30;;;20.00;99.90;;;;;;5028755;28;20105;-70
2022/05/13 04:38:23;;;;;;;4.13;1.17;;;20.10;99.90;;;;;;5030123;28;20022;-69
2022/05/13 04:40:51;;;;;;;5.57;1.25;;;20.10;99.90;;;;;;5027583;28;20034;-69
2022/05/13 04:43:18;;;;;;;6.15;1.50;;;20.20;99.90;;;;;;5030257;28;20059;-69
2022/05/13 04:45:45;;;;;;;8.90;1.42;;;20.20;99.90;;;;;;5022099;28;20044;-69
2022/05/13 04:48:19;;;;;;;6.68;1.33;;;20.10;99.90;;;;;;5024849;28;20022;-69
2022/05/13 04:51:00;;;;;;;5.60;1.65;;;20.10;99.90;;;;;;5024861;28;20033;-68
2022/05/13 04:53:32;;;;;;;5.90;1.45;;;19.90;99.90;;;;;;5024880;28;20080;-68
2022/05/13 04:56:00;;;;;;;7.22;1.38;;;20.00;99.90;;;;;;5016915;28;20080;-68
2022/05/13 04:58:28;;;;;;;5.88;1.02;;;19.90;99.90;;;;;;5025157;28;20017;-69
2022/05/13 05:00:57;;;;;;;9.27;1.38;;;19.90;99.90;;;;;;5027188;28;20034;-69
2022/05/13 05:03:27;;;;;;;6.55;1.05;;;19.90;99.90;;;;;;5029669;28;20021;-69
2022/05/13 05:05:55;;;;;;;6.13;0.93;;;19.90;99.90;;;;;;5022106;28;20397;-69
2022/05/13 05:08:23;;;;;;;4.63;0.73;;;19.90;99.90;;;;;;5016074;28;20180;-68
2022/05/13 05:10:50;;;;;;;9.95;1.52;;;19.80;99.90;;;;;;5029258;28;20105;-67
2022/05/13 05:13:29;;;;;;;4.88;0.90;;;19.90;99.90;;;;;;5023614;28;20026;-69
2022/05/13 05:15:57;;;;;;;3.70;1.10;;;20.10;99.90;;;;;;5027217;28;20089;-69
2022/05/13 05:18:25;;;;;;;5.95;1.02;;;20.00;99.90;;;;;;5028464;28;20068;-69
2022/05/13 05:20:53;;;;;;;6.03;0.77;;;20.00;99.90;;;;;;5021478;28;20045;-68
2022/05/13 05:23:23;;;;;;;7.07;1.40;;;20.10;99.90;;;;;;5020542;28;20389;-68
2022/05/13 05:25:51;;;;;;;7.60;1.08;;;20.10;99.90;;;;;;5025694;28;20018;-68
2022/05/13 05:28:18;;;;;;;10.82;1.75;;;20.10;99.90;;;;;;5028576;28;20025;-69
2022/05/13 05:30:46;;;;;;;6.18;1.13;;;20.20;99.90;;;;;;5028381;28;20022;-69
2022/05/13 05:33:14;;;;;;;5.40;0.82;;;20.20;99.90;;;;;;5028384;28;20434;-68
2022/05/13 05:35:42;;;;;;;8.65;1.52;;;20.30;99.90;;;;;;5025789;28;20541;-68
2022/05/13 05:38:09;;;;;;;5.53;1.17;;;20.20;99.90;;;;;;5020073;28;20454;-68
2022/05/13 05:40:38;;;;;;;6.38;1.27;;;20.20;99.90;;;;;;5023379;28;20037;-68
2022/05/13 05:43:08;;;;;;;5.55;1.00;;;20.20;99.90;;;;;;5019569;28;20018;-68
2022/05/13 05:45:38;;;;;;;6.57;1.60;;;20.10;99.90;;;;;;5021447;28;20064;-68
2022/05/13 05:48:07;;;;;;;4.45;0.90;;;20.00;99.90;;;;;;5015996;28;20022;-68
2022/05/13 05:50:34;;;;;;;5.32;1.00;;;20.00;99.90;;;;;;5021415;28;20115;-68
2022/05/13 05:53:01;;;;;;;9.65;1.38;;;20.10;99.90;;;;;;5021512;28;20075;-68
2022/05/13 05:58:17;;;;;;;6.55;2.30;;;20.10;99.90;;;;;;5028513;28;20072;-69
2022/05/13 06:00:50;;;;;;;7.07;1.73;;;20.20;99.90;;;;;;5021286;28;20029;-68
2022/05/13 06:03:18;;;;;;;6.45;2.13;;;20.30;99.90;;;;;;5023022;28;20656;-69
2022/05/13 06:05:59;;;;;;;7.97;2.60;;;20.30;99.90;;;;;;5023299;28;20053;-68
2022/05/13 06:08:27;;;;;;;4.93;2.22;;;20.20;99.90;;;;;;5027195;28;20026;-68
2022/05/13 06:10:54;;;;;;;8.90;4.20;;;20.20;99.90;;;;;;5018581;28;20101;-68
2022/05/13 06:13:21;;;;;;;8.25;3.90;;;20.10;99.90;;;;;;5014740;28;21272;-68
2022/05/13 06:15:48;;;;;;;8.88;4.13;;;20.00;99.90;;;;;;5014354;28;20504;-68
2022/05/13 06:18:16;;;;;;;9.73;5.53;;;20.00;99.90;;;;;;5021437;28;20048;-68
2022/05/13 06:20:43;;;;;;;8.60;4.28;;;20.00;99.90;;;;;;5020256;28;20482;-68
2022/05/13 06:23:10;;;;;;;9.68;4.68;;;19.90;99.90;;;;;;5022823;28;20025;-68
2022/05/13 06:25:39;;;;;;;8.43;5.47;;;19.90;99.90;;;;;;5025179;28;20036;-68
2022/05/13 06:28:07;;;;;;;8.75;5.53;;;19.90;99.90;;;;;;5024971;28;20486;-68
2022/05/13 06:30:36;;;;;;;7.70;5.60;;;19.90;99.90;;;;;;5017547;28;20026;-68
2022/05/13 06:33:05;;;;;;;9.65;5.78;;;19.80;99.90;;;;;;5028354;28;20030;-68
2022/05/13 06:35:34;;;;;;;11.43;5.18;;;19.80;99.90;;;;;;5018603;28;20030;-68
2022/05/13 06:38:03;;;;;;;9.82;5.57;;;19.80;99.90;;;;;;5018857;28;20026;-68
2022/05/13 06:40:30;;;;;;;7.80;4.30;;;19.70;99.90;;;;;;5021324;28;20030;-68
2022/05/13 06:42:57;;;;;;;8.57;5.15;;;19.70;99.90;;;;;;5020027;28;20021;-68
2022/05/13 06:45:25;;;;;;;10.82;5.65;;;19.70;99.90;;;;;;5023438;28;20105;-68
2022/05/13 06:47:52;;;;;;;10.45;6.35;;;19.60;99.90;;;;;;5015459;28;20031;-68
2022/05/13 06:50:20;;;;;;;14.57;6.45;;;19.60;99.90;;;;;;5016966;28;20064;-68
2022/05/13 06:52:48;;;;;;;13.73;7.53;;;19.60;99.90;;;;;;5022218;28;20073;-68
2022/05/13 06:55:18;;;;;;;14.65;6.72;;;19.60;99.90;;;;;;5019796;28;20100;-68
2022/05/13 06:57:45;;;;;;;15.90;9.15;;;19.60;99.90;;;;;;5024541;28;20036;-68
2022/05/13 07:00:13;;;;;;;10.25;6.93;;;19.60;99.90;;;;;;5021821;28;20087;-68
2022/05/13 07:02:41;;;;;;;12.55;7.03;;;19.50;99.90;;;;;;5023598;28;20033;-69
2022/05/13 07:05:11;;;;;;;11.55;6.32;;;19.50;99.90;;;;;;5016330;28;20479;-69
2022/05/13 07:07:39;;;;;;;12.18;6.32;;;19.50;99.90;;;;;;5016650;28;20040;-69
2022/05/13 07:10:07;;;;;;;12.65;6.53;;;19.50;99.90;;;;;;5016695;28;20038;-70
2022/05/13 07:12:34;;;;;;;14.10;6.07;;;19.40;99.90;;;;;;5024490;28;20029;-70
2022/05/13 07:15:03;;;;;;;10.60;5.78;;;19.40;99.90;;;;;;5020446;28;20034;-70
2022/05/13 07:17:30;;;;;;;12.38;6.55;;;19.40;99.90;;;;;;5025301;28;20021;-70
2022/05/13 07:19:57;;;;;;;9.88;7.13;;;19.30;99.90;;;;;;5030059;28;20470;-70
2022/05/13 07:22:25;;;;;;;14.30;6.75;;;19.30;99.90;;;;;;5018324;28;20030;-70
2022/05/13 07:24:52;;;;;;;10.48;7.00;;;19.30;99.90;;;;;;5015813;28;20426;-69
2022/05/13 07:27:19;;;;;;;11.75;6.60;;;19.20;99.90;;;;;;5027777;28;20026;-70
2022/05/13 07:29:46;;;;;;;14.38;7.53;;;19.20;99.90;;;;;;5025193;28;20124;-70
2022/05/13 07:32:14;;;;;;;13.50;6.85;;;19.20;99.90;;;;;;5031578;28;20021;-69
2022/05/13 07:34:41;;;;;;;14.05;7.03;;;19.10;99.90;;;;;;5026202;28;20049;-70
2022/05/13 07:37:08;;;;;;;14.52;8.48;;;19.10;99.90;;;;;;5015435;28;20390;-69
2022/05/13 07:42:21;;;;;;;12.52;7.78;;;19.10;99.90;;;;;;5020211;28;20087;-69
2022/05/13 07:44:53;;;;;;;15.02;7.75;;;19.10;99.90;;;;;;5030559;28;20453;-71
2022/05/13 07:47:20;;;;;;;17.50;8.18;;;19.10;99.90;;;;;;5023764;28;20038;-70
2022/05/13 07:49:48;;;;;;;18.25;7.90;;;19.10;99.90;;;;;;5032938;28;20033;-69
2022/05/13 07:52:16;;;;;;;13.52;8.73;;;19.10;99.90;;;;;;5034169;28;20045;-69
2022/05/13 07:54:46;;;;;;;13.77;7.72;;;19.10;99.90;;;;;;5025484;28;20029;-70
2022/05/13 07:57:15;;;;;;;13.98;9.02;;;19.10;99.90;;;;;;5016673;28;20034;-69
2022/05/13 08:02:28;;;;;;;23.08;8.57;;;19.10;99.90;;;;;;5016281;28;20081;-69
2022/05/13 08:04:58;;;;;;;21.92;9.38;;;19.20;99.90;;;;;;5031249;28;20029;-69
2022/05/13 08:07:25;;;;;;;23.00;8.30;;;19.20;99.90;;;;;;5031540;28;20028;-69
2022/05/13 08:09:52;;;;;;;26.30;8.98;;;19.20;99.90;;;;;;5016345;28;20463;-70
2022/05/13 08:12:20;;;;;;;25.05;9.50;;;19.30;99.90;;;;;;5026154;28;20032;-71
2022/05/13 08:14:48;;;;;;;29.98;9.80;;;19.20;99.90;;;;;;5036183;28;20470;-69
2022/05/13 08:17:16;;;;;;;33.00;11.48;;;19.20;99.90;;;;;;5050991;28;20029;-70
2022/05/13 08:19:43;;;;;;;31.88;9.73;;;19.30;99.90;;;;;;5034475;28;20029;-69
2022/05/13 08:22:12;;;;;;;26.65;10.00;;;19.30;99.90;;;;;;5035650;28;20048;-69
2022/05/13 08:24:46;;;;;;;22.60;10.02;;;19.20;99.90;;;;;;5035401;28;20436;-70
2022/05/13 08:27:13;;;;;;;24.10;10.97;;;19.20;99.90;;;;;;5034319;28;20038;-69
2022/05/13 08:29:42;;;;;;;34.20;9.82;;;19.20;99.90;;;;;;5029858;28;20034;-69
2022/05/13 08:32:09;;;;;;;25.10;9.80;;;19.10;99.90;;;;;;5035877;28;20033;-69
2022/05/13 08:34:37;;;;;;;25.75;11.15;;;19.10;99.90;;;;;;5034847;28;20021;-69
2022/05/13 08:37:05;;;;;;;31.45;12.55;;;19.10;99.90;;;;;;5017979;28;20167;-70
2022/05/13 08:39:33;;;;;;;21.48;10.10;;;19.10;99.90;;;;;;5035696;28;20473;-69
2022/05/13 08:42:22;;;;;;;21.30;9.77;;;19.10;99.90;;;;;;5019137;28;20050;-70
2022/05/13 08:44:50;;;;;;;26.25;10.45;;;19.00;99.90;;;;;;5015511;28;20505;-70
2022/05/13 08:47:46;;;;;;;22.95;9.10;;;19.00;99.90;;;;;;5030690;28;20025;-70
2022/05/13 08:50:22;;;;;;;19.55;9.43;;;18.90;99.90;;;;;;5033484;28;20521;-70
2022/05/13 08:53:09;;;;;;;26.40;11.05;;;18.90;99.90;;;;;;5035535;28;20065;-70
2022/05/13 08:56:01;;;;;;;22.60;11.50;;;18.90;99.90;;;;;;5035635;28;20025;-69
2022/05/13 08:58:53;;;;;;;25.75;11.13;;;18.90;99.90;;;;;;5034585;28;20100;-69
2022/05/13 09:01:36;;;;;;;24.58;11.18;;;18.90;99.90;;;;;;5029044;28;20100;-70
2022/05/13 09:04:22;;;;;;;26.65;11.25;;;18.80;99.90;;;;;;5025487;28;20017;-70
2022/05/13 09:07:11;;;;;;;26.00;11.15;;;18.80;99.90;;;;;;5034942;28;20021;-70
2022/05/13 09:09:44;;;;;;;23.67;12.35;;;18.80;99.90;;;;;;5033604;28;20029;-70
2022/05/13 09:12:20;;;;;;;25.52;10.68;;;18.80;99.90;;;;;;5035319;28;20025;-69
2022/05/13 09:15:04;;;;;;;23.10;11.05;;;18.70;99.90;;;;;;5034013;28;20034;-70
2022/05/13 09:17:57;;;;;;;27.67;11.40;;;18.70;99.90;;;;;;5032734;28;20123;-68
2022/05/13 09:20:25;;;;;;;21.63;11.02;;;18.60;99.90;;;;;;5015476;28;20030;-68
2022/05/13 09:22:58;;;;;;;22.98;10.82;;;18.60;99.90;;;;;;5014193;28;20092;-68
2022/05/13 09:25:49;;;;;;;21.05;10.40;;;18.60;99.90;;;;;;5014442;28;20029;-68
2022/05/13 09:28:16;;;;;;;22.50;10.57;;;18.50;99.90;;;;;;5021314;28;20374;-67
2022/05/13 09:30:50;;;;;;;20.88;10.95;;;18.50;99.90;;;;;;5033867;28;20171;-68
2022/05/13 09:33:37;;;;;;;15.60;9.95;;;18.50;99.90;;;;;;5027767;28;20087;-68
2022/05/13 09:36:28;;;;;;;25.70;10.40;;;18.50;99.90;;;;;;5028976;28;20030;-67
2022/05/13 09:38:59;;;;;;;23.15;11.63;;;18.50;99.90;;;;;;5014731;28;20042;-68
2022/05/13 09:41:27;;;;;;;28.80;12.77;;;18.40;99.90;;;;;;5014812;28;20037;-69
2022/05/13 09:44:14;;;;;;;23.48;12.35;;;18.40;99.90;;;;;;5013852;28;20029;-69
2022/05/13 09:46:45;;;;;;;30.13;13.35;;;18.40;99.90;;;;;;5020987;28;20025;-69
2022/05/13 09:49:28;;;;;;;26.05;12.75;;;18.40;99.90;;;;;;5019320;28;20026;-69
2022/05/13 09:51:59;;;;;;;27.55;14.27;;;18.40;99.90;;;;;;5020165;28;20053;-69
2022/05/13 09:54:31;;;;;;;33.80;15.32;;;18.50;99.90;;;;;;5019511;28;20055;-69
2022/05/13 09:57:15;;;;;;;34.30;15.18;;;18.40;99.90;;;;;;5014627;28;20127;-69
2022/05/13 09:59:44;;;;;;;;;;;18.40;99.90;;;;;;5015134;28;20029;-70
2022/05/13 10:02:32;;;;;;;28.45;14.65;;;18.40;99.90;;;;;;5013642;28;20385;-69
2022/05/13 10:05:15;;;;;;;24.45;13.90;;;18.40;99.90;;;;;;5031432;28;20524;-69
2022/05/13 10:07:54;;;;;;;27.80;13.60;;;18.40;99.90;;;;;;5034373;28;20424;-69
2022/05/13 10:16:09;;;;;;;26.80;13.48;;;18.40;99.90;;;;;;5014915;28;20080;-70
2022/05/13 10:18:53;;;;;;;25.80;12.77;;;18.30;99.90;;;;;;5013240;28;20056;-69
2022/05/13 10:21:29;;;;;;;28.98;14.70;;;18.50;99.90;;;;;;5012784;28;20034;-70
2022/05/13 10:23:59;;;;;;;23.15;12.45;;;18.50;99.90;;;;;;5014421;28;20026;-69
2022/05/13 10:26:32;;;;;;;30.52;14.90;;;18.50;99.90;;;;;;5014908;28;20037;-69
2022/05/13 10:29:27;;;;;;;29.75;14.85;;;18.60;99.90;;;;;;5014400;28;20442;-69
2022/05/13 10:31:55;;;;;;;28.92;13.30;;;18.60;99.90;;;;;;5014173;28;20108;-69
2022/05/13 10:34:36;;;;;;;32.03;12.93;;;18.70;99.90;;;;;;5018308;28;20026;-69
2022/05/13 10:37:22;;;;;;;35.53;14.30;;;18.70;99.90;;;;;;5043224;28;20025;-69
2022/05/13 10:40:11;;;;;;;30.35;15.40;;;18.80;99.90;;;;;;5053817;28;20032;-69
2022/05/13 10:42:39;;;;;;;23.83;12.60;;;18.70;99.90;;;;;;5053429;28;20104;-69
2022/05/13 10:45:26;;;;;;;35.35;12.55;;;18.80;99.90;;;;;;5024641;28;20025;-69
2022/05/13 10:48:24;;;;;;;31.33;12.57;;;18.80;99.90;;;;;;5013505;28;20021;-69
2022/05/13 10:51:18;;;;;;;35.72;13.02;;;18.80;99.90;;;;;;5018165;28;20068;-69
2022/05/13 10:54:25;;;;;;;24.20;11.95;;;18.80;99.90;;;;;;5013598;28;20038;-69
2022/05/13 10:56:53;;;;;;;43.03;14.82;;;18.80;99.90;;;;;;5013684;28;20038;-69
2022/05/13 10:59:26;;;;;;;38.92;15.75;;;18.90;99.90;;;;;;5013490;28;20018;-69
2022/05/13 11:02:12;;;;;;;31.40;14.50;;;18.90;99.90;;;;;;5013689;28;20109;-69
2022/05/13 11:04:55;;;;;;;29.33;13.30;;;18.90;99.90;;;;;;5013277;28;20320;-69
2022/05/13 11:07:54;;;;;;;31.17;13.98;;;18.90;99.90;;;;;;5011981;28;20087;-70
2022/05/13 11:10:41;;;;;;;30.25;12.88;;;18.90;99.90;;;;;;5013392;28;20501;-69
2022/05/13 11:13:31;;;;;;;27.75;12.10;;;18.90;99.90;;;;;;5012982;28;20026;-69
2022/05/13 11:16:07;;;;;;;25.83;11.63;;;18.90;99.90;;;;;;5013227;28;20036;-69
2022/05/13 11:19:04;;;;;;;28.00;11.63;;;18.70;99.90;;;;;;5013777;28;20026;-69
2022/05/13 11:22:03;;;;;;;29.95;13.20;;;18.70;99.90;;;;;;5016151;28;20033;-69
2022/05/13 11:27:56;;;;;;;20.23;12.50;;;18.70;99.90;;;;;;5018804;28;20045;-69
2022/05/13 11:30:38;;;;;;;27.67;13.80;;;18.70;99.90;;;;;;5023653;28;20482;-69
2022/05/13 11:33:33;;;;;;;31.73;13.43;;;18.70;99.90;;;;;;5024221;28;20105;-68
2022/05/13 11:36:05;;;;;;;;;;;18.70;99.90;;;;;;5022490;28;20037;-68
2022/05/13 11:39:10;;;;;;;33.75;17.08;;;18.70;99.90;;;;;;5021435;28;19909;-68
2022/05/13 11:41:45;;;;;;;35.70;15.25;;;18.80;99.90;;;;;;5021593;28;20033;-68
2022/05/13 11:44:17;;;;;;;32.05;15.60;;;18.70;99.90;;;;;;5017306;28;20053;-69
2022/05/13 11:46:52;;;;;;;29.83;15.80;;;18.80;99.90;;;;;;5021409;28;20053;-68
2022/05/13 11:49:23;;;;;;;32.15;16.60;;;18.70;99.90;;;;;;5025256;28;20513;-68
2022/05/13 11:51:51;;;;;;;28.45;16.00;;;18.60;99.90;;;;;;5019289;28;20042;-68
2022/05/13 11:54:29;;;;;;;33.42;16.33;;;18.60;99.90;;;;;;5028041;28;20032;-69
2022/05/13 11:57:24;;;;;;;32.28;16.27;;;18.60;99.90;;;;;;5020835;28;20040;-68
2022/05/13 11:59:51;;;;;;;28.55;16.35;;;18.70;99.90;;;;;;5020173;28;20028;-68
2022/05/13 12:02:32;;;;;;;27.90;17.42;;;18.60;99.90;;;;;;5013093;28;20033;-68
2022/05/13 12:05:10;;;;;;;29.52;16.65;;;18.70;99.90;;;;;;5012276;28;20030;-68
2022/05/13 12:08:09;;;;;;;28.95;15.35;;;18.60;99.90;;;;;;5030714;28;20034;-68
2022/05/13 12:11:04;;;;;;;27.83;17.10;;;18.70;99.90;;;;;;5012394;28;20026;-68
2022/05/13 12:13:56;;;;;;;29.42;16.00;;;18.70;99.90;;;;;;5020332;28;20362;-68
2022/05/13 12:16:41;;;;;;;27.10;15.63;;;18.60;99.90;;;;;;5024247;28;20149;-68
2022/05/13 12:19:26;;;;;;;26.92;15.07;;;18.70;99.90;;;;;;5019670;28;20038;-68
2022/05/13 12:22:12;;;;;;;21.35;14.65;;;18.70;99.90;;;;;;5026349;28;20030;-68
2022/05/13 12:25:05;;;;;;;25.35;16.08;;;18.60;99.90;;;;;;5025348;28;20061;-68
2022/05/13 12:27:44;;;;;;;29.27;15.57;;;18.60;99.90;;;;;;5029505;28;20051;-68
2022/05/13 12:30:30;;;;;;;27.02;15.32;;;18.60;99.90;;;;;;5029277;28;20049;-68
2022/05/13 12:33:20;;;;;;;25.02;14.75;;;18.70;99.90;;;;;;5029547;28;20026;-68
2022/05/13 12:39:11;;;;;;;24.30;14.35;;;18.70;99.90;;;;;;5031328;28;20047;-68
2022/05/13 12:41:44;;;;;;;20.83;14.35;;;18.70;99.90;;;;;;5025851;28;20033;-68
2022/05/13 12:44:26;;;;;;;23.63;14.80;;;18.60;99.90;;;;;;5017834;28;20050;-68
2022/05/13 12:47:12;;;;;;;19.55;13.20;;;18.60;99.90;;;;;;5026591;28;20021;-68
2022/05/13 12:50:19;;;;;;;23.63;14.27;;;18.60;99.90;;;;;;5024679;28;20034;-68
2022/05/13 12:52:47;;;;;;;18.73;13.48;;;18.60;99.90;;;;;;5016711;28;20049;-68
2022/05/13 12:55:20;;;;;;;26.55;14.48;;;18.60;99.90;;;;;;5026486;28;20022;-69
2022/05/13 12:57:50;;;;;;;29.70;16.53;;;18.60;99.90;;;;;;5030695;28;20119;-69
2022/05/13 13:00:36;;;;;;;24.33;15.15;;;18.60;99.90;;;;;;5020902;28;20030;-68
2022/05/13 13:03:09;;;;;;;23.98;13.95;;;18.60;99.90;;;;;;5016257;28;20088;-68
2022/05/13 13:05:40;;;;;;;20.77;14.60;;;18.60;99.90;;;;;;5015297;28;20034;-69
2022/05/13 13:08:18;;;;;;;24.40;14.93;;;18.60;99.90;;;;;;5015012;28;20528;-68
2022/05/13 13:10:54;;;;;;;23.75;14.93;;;18.60;99.90;;;;;;5019026;28;20026;-68
2022/05/13 13:13:59;;;;;;;30.95;16.48;;;18.60;99.90;;;;;;5025368;28;20032;-68
2022/05/13 13:17:00;;;;;;;28.83;16.23;;;18.60;99.90;;;;;;5028072;28;20192;-68
2022/05/13 13:19:30;;;;;;;23.58;15.40;;;18.50;99.90;;;;;;5018119;28;21204;-68
2022/05/13 13:22:12;;;;;;;27.98;14.85;;;18.50;99.90;;;;;;5030338;28;20037;-68
2022/05/13 13:24:41;;;;;;;26.83;14.77;;;18.50;99.90;;;;;;5022751;28;20037;-68
2022/05/13 13:27:15;;;;;;;25.73;16.02;;;18.60;99.90;;;;;;5027773;28;20021;-68
2022/05/13 13:29:44;;;;;;;23.00;15.27;;;18.50;99.90;;;;;;5014950;28;20022;-68
2022/05/13 13:32:18;;;;;;;26.10;15.75;;;18.50;99.90;;;;;;5025631;28;20382;-68
2022/05/13 13:34:48;;;;;;;;;;;18.50;99.90;;;;;;5017191;28;20036;-68
2022/05/13 13:37:17;;;;;;;24.83;15.63;;;18.50;99.90;;;;;;5029371;28;20337;-68
2022/05/13 13:39:44;;;;;;;22.15;15.40;;;18.50;99.90;;;;;;5025931;28;20029;-68
2022/05/13 13:42:15;;;;;;;23.23;15.07;;;18.50;99.90;;;;;;5015294;28;20037;-68